createdAt,value
2022-07-25T00:01:20.644Z,100332.34
2022-07-25T00:03:48.697Z,100348.50
2022-07-25T00:06:17.970Z,100350.81
2022-07-25T00:08:46.128Z,100352.91
2022-07-25T00:11:13.955Z,100341.75
2022-07-25T00:13:41.805Z,100335.75
2022-07-25T00:16:09.709Z,100332.44
2022-07-25T00:18:38.908Z,100328.31
2022-07-25T00:21:07.097Z,100321.94
2022-07-25T00:23:34.870Z,100311.59
2022-07-25T00:26:02.788Z,100304.78
2022-07-25T00:28:30.559Z,100296.91
2022-07-25T00:30:58.524Z,100299.63
2022-07-25T00:33:26.377Z,100307.88
2022-07-25T00:35:55.548Z,100302.47
2022-07-25T00:38:23.321Z,100293.56
2022-07-25T00:40:54.268Z,100294.59
2022-07-25T00:43:23.402Z,100294.81
2022-07-25T00:45:51.197Z,100287.78
2022-07-25T00:48:19.947Z,100279.69
2022-07-25T00:50:47.724Z,100279.69
2022-07-25T00:53:17.323Z,100274.72
2022-07-25T00:55:45.197Z,100277.41
2022-07-25T00:58:13.015Z,100283.84
2022-07-25T01:00:41.237Z,100285.94
2022-07-25T01:03:09.169Z,100279.72
2022-07-25T01:05:37.189Z,100283.47
2022-07-25T01:08:05.618Z,100279.72
2022-07-25T01:10:35.244Z,100282.63
2022-07-25T01:13:03.562Z,100282.50
2022-07-25T01:15:31.498Z,100276.50
2022-07-25T01:17:59.749Z,100274.84
2022-07-25T01:20:31.608Z,100276.50
2022-07-25T01:23:00.796Z,100260.81
2022-07-25T01:25:29.465Z,100275.88
2022-07-25T01:27:57.867Z,100266.59
2022-07-25T01:30:26.394Z,100275.06
2022-07-25T01:32:54.485Z,100274.47
2022-07-25T01:35:22.354Z,100271.59
2022-07-25T01:37:51.748Z,100276.16
2022-07-25T01:40:19.778Z,100222.94
2022-07-25T01:42:47.614Z,100268.31
2022-07-25T01:45:15.496Z,100267.50
2022-07-25T01:47:43.293Z,100267.94
2022-07-25T01:50:11.617Z,100270.63
2022-07-25T01:52:40.439Z,100262.53
2022-07-25T01:55:10.520Z,100260.44
2022-07-25T01:57:39.059Z,100249.50
2022-07-25T02:00:11.385Z,100243.06
2022-07-25T02:02:42.692Z,100246.59
2022-07-25T02:05:12.143Z,100248.88
2022-07-25T02:07:40.195Z,100232.03
2022-07-25T02:10:10.392Z,100249.31
2022-07-25T02:12:38.239Z,100240.06
2022-07-25T02:15:07.017Z,100239.44
2022-07-25T02:17:34.805Z,100240.50
2022-07-25T02:20:02.601Z,100230.75
2022-07-25T02:22:30.419Z,100234.50
2022-07-25T02:24:58.241Z,100232.84
2022-07-25T02:27:27.428Z,100233.88
2022-07-25T02:29:55.172Z,100226.03
2022-07-25T02:32:23.034Z,100217.94
2022-07-25T02:34:50.855Z,100222.94
2022-07-25T02:37:18.590Z,100224.59
2022-07-25T02:39:46.375Z,100217.13
2022-07-25T02:42:14.112Z,100216.28
2022-07-25T02:44:43.391Z,100216.28
2022-07-25T02:47:11.181Z,100215.47
2022-07-25T02:49:38.987Z,100213.81
2022-07-25T02:52:06.837Z,100204.09
2022-07-25T02:54:35.078Z,100199.38
2022-07-25T02:57:02.904Z,100203.50
2022-07-25T02:59:32.253Z,100198.56
2022-07-25T03:02:01.629Z,100204.38
2022-07-25T03:04:31.041Z,100208.13
2022-07-25T03:06:58.939Z,100195.91
2022-07-25T03:09:26.758Z,100194.88
2022-07-25T03:11:54.620Z,100194.03
2022-07-25T03:14:22.543Z,100190.31
2022-07-25T03:16:50.373Z,100192.38
2022-07-25T03:19:19.560Z,100188.88
2022-07-25T03:21:47.390Z,100189.69
2022-07-25T03:24:15.245Z,100183.50
2022-07-25T03:26:43.072Z,100179.97
2022-07-25T03:29:10.868Z,100175.00
2022-07-25T03:31:38.831Z,100173.41
2022-07-25T03:34:07.229Z,100169.88
2022-07-25T03:36:36.816Z,100170.06
2022-07-25T03:39:05.576Z,100168.63
2022-07-25T03:41:33.616Z,100166.16
2022-07-25T03:44:01.400Z,100160.59
2022-07-25T03:46:29.394Z,100156.53
2022-07-25T03:48:57.262Z,100157.75
2022-07-25T03:51:25.199Z,100150.34
2022-07-25T03:54:03.714Z,100148.25
2022-07-25T03:56:33.140Z,100145.78
2022-07-25T03:59:00.890Z,100144.34
2022-07-25T04:01:28.868Z,100142.09
2022-07-25T04:03:57.701Z,100138.56
2022-07-25T04:06:25.786Z,100143.34
2022-07-25T04:08:56.139Z,100137.97
2022-07-25T04:11:24.060Z,100132.56
2022-07-25T04:13:52.603Z,100130.94
2022-07-25T04:16:22.492Z,100135.25
2022-07-25T04:18:50.900Z,100134.69
2022-07-25T04:21:19.627Z,100133.03
2022-07-25T04:23:47.447Z,100129.31
2022-07-25T04:26:17.008Z,100134.22
2022-07-25T04:28:44.836Z,100130.50
2022-07-25T04:31:12.662Z,100127.38
2022-07-25T04:33:41.104Z,100120.94
2022-07-25T04:36:09.968Z,100116.16
2022-07-25T04:38:37.959Z,100118.84
2022-07-25T04:41:06.306Z,100117.22
2022-07-25T04:43:35.548Z,100117.94
2022-07-25T04:46:03.397Z,100120.22
2022-07-25T04:48:31.572Z,100115.44
2022-07-25T04:50:59.471Z,100101.59
2022-07-25T04:53:27.328Z,100113.34
2022-07-25T04:55:55.184Z,100107.69
2022-07-25T04:58:24.813Z,100096.69
2022-07-25T05:00:54.261Z,100103.31
2022-07-25T05:03:22.290Z,100101.22
2022-07-25T05:05:50.158Z,100100.81
2022-07-25T05:08:18.349Z,100096.66
2022-07-25T05:10:46.204Z,100103.69
2022-07-25T05:13:14.060Z,100095.16
2022-07-25T05:15:44.525Z,100094.56
2022-07-25T05:18:13.823Z,100099.50
2022-07-25T05:20:43.402Z,100102.56
2022-07-25T05:23:11.342Z,100097.78
2022-07-25T05:25:39.291Z,100087.59
2022-07-25T05:28:07.137Z,100090.69
2022-07-25T05:30:39.605Z,100089.41
2022-07-25T05:33:07.986Z,100078.03
2022-07-25T05:35:37.290Z,100086.94
2022-07-25T05:38:06.561Z,100076.53
2022-07-25T05:40:34.663Z,100080.63
2022-07-25T05:43:03.694Z,100084.97
2022-07-25T05:45:32.101Z,100075.25
2022-07-25T05:47:59.967Z,100079.38
2022-07-25T05:50:27.825Z,100071.88
2022-07-25T05:52:57.020Z,100072.50
2022-07-25T05:55:25.286Z,100059.56
2022-07-25T05:57:53.114Z,100065.66
2022-07-25T06:00:20.958Z,100069.34
2022-07-25T06:02:48.935Z,100071.81
2022-07-25T06:05:16.977Z,100069.25
2022-07-25T06:07:44.856Z,100070.91
2022-07-25T06:10:14.060Z,100073.16
2022-07-25T06:12:41.883Z,100067.53
2022-07-25T06:15:14.491Z,100062.50
2022-07-25T06:17:50.163Z,100062.06
2022-07-25T06:20:17.931Z,100061.59
2022-07-25T06:22:46.966Z,100058.06
2022-07-25T06:25:16.213Z,100056.78
2022-07-25T06:27:44.207Z,100059.03
2022-07-25T06:30:19.698Z,100054.28
2022-07-25T06:32:48.541Z,100059.00
2022-07-25T06:35:17.136Z,100062.03
2022-07-25T06:37:45.069Z,100057.84
2022-07-25T06:40:14.366Z,100059.03
2022-07-25T06:42:46.568Z,100064.53
2022-07-25T06:45:16.376Z,100059.53
2022-07-25T06:47:45.690Z,100057.19
2022-07-25T06:50:17.143Z,100055.25
2022-07-25T06:52:45.332Z,100060.97
2022-07-25T06:55:16.858Z,100059.84
2022-07-25T06:57:46.309Z,100064.53
2022-07-25T07:00:15.720Z,100070.28
2022-07-25T07:02:52.010Z,100066.06
2022-07-25T07:05:20.509Z,100053.53
2022-07-25T07:07:48.434Z,100054.34
2022-07-25T07:10:16.828Z,100047.41
2022-07-25T07:12:46.225Z,100047.00
2022-07-25T07:15:14.709Z,100057.31
2022-07-25T07:17:43.550Z,100045.94
2022-07-25T07:20:13.105Z,100042.56
2022-07-25T07:22:46.805Z,100033.63
2022-07-25T07:25:19.636Z,100037.03
2022-07-25T07:27:49.506Z,100032.34
2022-07-25T07:30:23.695Z,100032.69
2022-07-25T07:32:54.550Z,100039.03
2022-07-25T07:35:22.700Z,100031.28
2022-07-25T07:37:50.838Z,100041.47
2022-07-25T07:40:25.251Z,100032.69
2022-07-25T07:42:54.477Z,100033.84
2022-07-25T07:45:24.975Z,100023.41
2022-07-25T07:47:57.464Z,100021.16
2022-07-25T07:50:31.862Z,100028.09
2022-07-25T07:53:03.180Z,100019.63
2022-07-25T07:55:45.973Z,100020.31
2022-07-25T07:58:16.916Z,100028.16
2022-07-25T08:00:45.741Z,100021.47
2022-07-25T08:03:14.713Z,100015.00
2022-07-25T08:05:44.393Z,100022.16
2022-07-25T08:08:14.640Z,100023.63
2022-07-25T08:10:44.628Z,100028.91
2022-07-25T08:13:19.822Z,100026.44
2022-07-25T08:15:51.250Z,100028.78
2022-07-25T08:18:20.101Z,100021.56
2022-07-25T08:20:48.667Z,100035.28
2022-07-25T08:23:17.212Z,100018.38
2022-07-25T08:25:46.485Z,100024.38
2022-07-25T08:28:16.335Z,100034.03
2022-07-25T08:30:44.726Z,100030.75
2022-07-25T08:33:16.237Z,100031.44
2022-07-25T08:35:48.512Z,100034.97
2022-07-25T08:38:19.988Z,100033.06
2022-07-25T08:40:48.110Z,100051.06
2022-07-25T08:43:18.060Z,100055.63
2022-07-25T08:45:47.973Z,100046.41
2022-07-25T08:48:18.537Z,100040.28
2022-07-25T08:50:48.320Z,100055.31
2022-07-25T08:53:35.239Z,100048.59
2022-07-25T08:56:10.732Z,100042.91
2022-07-25T08:58:41.696Z,100066.28
2022-07-25T09:01:15.401Z,100062.06
2022-07-25T09:03:43.865Z,100059.09
2022-07-25T09:06:17.351Z,100057.47
2022-07-25T09:08:52.691Z,100058.19
2022-07-25T09:11:31.236Z,100060.53
2022-07-25T09:14:02.104Z,100054.78
2022-07-25T09:16:31.507Z,100058.19
2022-07-25T09:19:14.446Z,100049.72
2022-07-25T09:21:44.736Z,100054.00
2022-07-25T09:24:16.373Z,100055.06
2022-07-25T09:26:45.979Z,100056.78
2022-07-25T09:29:20.176Z,100053.84
2022-07-25T09:31:48.388Z,100057.97
2022-07-25T09:34:29.627Z,100069.44
2022-07-25T09:36:57.454Z,100079.56
2022-07-25T09:39:43.490Z,100083.66
2022-07-25T09:42:25.509Z,100078.50
2022-07-25T09:45:04.113Z,100087.31
2022-07-25T09:47:32.616Z,100092.84
2022-07-25T09:50:00.632Z,100103.09
2022-07-25T09:52:28.659Z,100105.69
2022-07-25T09:54:57.021Z,100112.91
2022-07-25T09:57:25.849Z,100109.78
2022-07-25T09:59:56.408Z,100113.47
2022-07-25T10:02:42.928Z,100122.44
2022-07-25T10:05:15.441Z,100124.72
2022-07-25T10:07:47.314Z,100120.53
2022-07-25T10:10:29.357Z,100126.06
2022-07-25T10:13:06.493Z,100142.31
2022-07-25T10:15:46.885Z,100142.91
2022-07-25T10:18:18.049Z,100150.44
2022-07-25T10:20:47.287Z,100145.28
2022-07-25T10:23:19.824Z,100141.88
2022-07-25T10:25:49.235Z,100124.88
2022-07-25T10:28:20.810Z,100123.09
2022-07-25T10:30:58.441Z,100132.41
2022-07-25T10:33:27.679Z,100108.19
2022-07-25T10:36:06.259Z,100096.56
2022-07-25T10:38:34.435Z,100090.34
2022-07-25T10:41:03.305Z,100099.03
2022-07-25T10:43:38.478Z,100103.97
2022-07-25T10:46:13.433Z,100099.25
2022-07-25T10:48:43.178Z,100102.53
2022-07-25T10:51:13.777Z,100106.56
2022-07-25T10:53:46.214Z,100105.38
2022-07-25T10:56:16.045Z,100111.63
2022-07-25T11:01:29.719Z,100124.81
2022-07-25T11:04:00.397Z,100117.31
2022-07-25T11:06:34.676Z,100127.88
2022-07-25T11:09:03.632Z,100136.25
2022-07-25T11:11:40.485Z,100126.66
2022-07-25T11:14:16.614Z,100116.22
2022-07-25T11:16:47.252Z,100109.84
2022-07-25T11:19:20.606Z,100121.50
2022-07-25T11:21:50.268Z,100118.44
2022-07-25T11:24:18.254Z,100130.69
2022-07-25T11:26:47.939Z,100142.16
2022-07-25T11:29:23.801Z,100138.00
2022-07-25T11:32:04.241Z,100124.59
2022-07-25T11:34:35.118Z,100132.47
2022-07-25T11:37:06.636Z,100138.56
2022-07-25T11:39:37.780Z,100123.06
2022-07-25T11:42:07.612Z,100133.88
2022-07-25T11:44:37.663Z,100134.31
2022-07-25T11:47:09.363Z,100131.00
2022-07-25T11:49:47.740Z,100124.94
2022-07-25T11:52:23.217Z,100129.38
2022-07-25T11:54:52.946Z,100133.38
2022-07-25T11:57:25.634Z,100130.00
2022-07-25T11:59:53.706Z,100130.19
2022-07-25T12:02:28.736Z,100136.72
2022-07-25T12:04:58.617Z,100128.34
2022-07-25T12:07:40.579Z,100149.28
2022-07-25T12:10:10.603Z,100156.88
2022-07-25T12:12:50.492Z,100171.31
2022-07-25T12:15:21.129Z,100165.69
2022-07-25T12:17:50.381Z,100160.22
2022-07-25T12:20:20.115Z,100151.75
2022-07-25T12:22:49.272Z,100158.59
2022-07-25T12:25:17.164Z,100165.94
2022-07-25T12:27:45.188Z,100170.38
2022-07-25T12:30:14.655Z,100167.91
2022-07-25T12:32:43.311Z,100151.31
2022-07-25T12:35:14.859Z,100155.94
2022-07-25T12:37:43.019Z,100157.53
2022-07-25T12:40:13.222Z,100145.63
2022-07-25T12:42:41.538Z,100145.94
2022-07-25T12:45:10.326Z,100142.56
2022-07-25T12:47:38.184Z,100151.72
2022-07-25T12:50:07.224Z,100154.69
2022-07-25T12:52:37.839Z,100159.91
2022-07-25T12:55:06.996Z,100155.31
2022-07-25T12:57:36.605Z,100159.00
2022-07-25T13:00:05.769Z,100154.69
2022-07-25T13:02:33.831Z,100158.91
2022-07-25T13:05:01.856Z,100159.69
2022-07-25T13:07:29.707Z,100147.94
2022-07-25T13:09:58.910Z,100163.56
2022-07-25T13:12:26.698Z,100156.78
2022-07-25T13:14:54.701Z,100156.28
2022-07-25T13:17:27.297Z,100154.47
2022-07-25T13:19:56.264Z,100149.19
2022-07-25T13:22:24.293Z,100160.22
2022-07-25T13:24:52.269Z,100149.47
2022-07-25T13:27:22.604Z,100152.88
2022-07-25T13:29:54.381Z,100163.66
2022-07-25T13:32:23.260Z,100158.66
2022-07-25T13:34:51.480Z,100160.72
2022-07-25T13:37:19.420Z,100173.19
2022-07-25T13:39:47.345Z,100143.50
2022-07-25T13:42:15.244Z,100166.75
2022-07-25T13:44:44.402Z,100181.53
2022-07-25T13:47:12.294Z,100176.16
2022-07-25T13:49:40.643Z,100173.00
2022-07-25T13:52:08.493Z,100168.25
2022-07-25T13:54:36.240Z,100167.38
2022-07-25T13:57:04.394Z,100168.31
2022-07-25T13:59:32.190Z,100176.00
2022-07-25T14:02:01.465Z,100181.09
2022-07-25T14:04:30.252Z,100189.94
2022-07-25T14:06:58.324Z,100176.69
2022-07-25T14:09:26.078Z,100186.66
2022-07-25T14:11:53.811Z,100199.81
2022-07-25T14:14:21.764Z,100188.28
2022-07-25T14:16:49.983Z,100208.44
2022-07-25T14:19:19.224Z,100186.94
2022-07-25T14:21:47.110Z,100196.59
2022-07-25T14:24:14.985Z,100187.34
2022-07-25T14:26:42.840Z,100192.34
2022-07-25T14:29:12.205Z,100176.25
2022-07-25T14:31:40.904Z,100173.09
2022-07-25T14:34:09.064Z,100186.56
2022-07-25T14:36:38.324Z,100176.28
2022-07-25T14:39:06.698Z,100171.94
2022-07-25T14:41:35.424Z,100180.31
2022-07-25T14:44:03.202Z,100189.81
2022-07-25T14:46:31.370Z,100189.47
2022-07-25T14:48:59.668Z,100186.75
2022-07-25T14:51:28.553Z,100183.59
2022-07-25T14:53:57.722Z,100188.34
2022-07-25T14:56:25.603Z,100190.16
2022-07-25T14:58:53.407Z,100194.94
2022-07-25T15:01:24.414Z,100185.03
2022-07-25T15:03:52.424Z,100203.13
2022-07-25T15:06:20.273Z,100201.28
2022-07-25T15:08:48.101Z,100217.47
2022-07-25T15:11:17.247Z,100219.50
2022-07-25T15:13:45.049Z,100220.75
2022-07-25T15:16:14.266Z,100226.88
2022-07-25T15:19:13.293Z,100233.25
2022-07-25T15:21:31.788Z,100248.38
2022-07-25T15:23:59.980Z,100268.88
2022-07-25T15:26:29.125Z,100260.28
2022-07-25T15:28:56.929Z,100257.69
2022-07-25T15:31:26.271Z,100270.19
2022-07-25T15:33:54.534Z,100264.19
2022-07-25T15:36:27.125Z,100270.41
2022-07-25T15:38:57.103Z,100265.00
2022-07-25T15:41:24.876Z,100272.28
2022-07-25T15:43:54.164Z,100269.72
2022-07-25T15:46:22.047Z,100286.09
2022-07-25T15:48:50.312Z,100284.25
2022-07-25T15:51:18.232Z,100280.97
2022-07-25T15:53:46.478Z,100259.34
2022-07-25T15:56:15.256Z,100274.28
2022-07-25T15:58:44.055Z,100266.97
2022-07-25T16:01:13.289Z,100269.53
2022-07-25T16:03:41.162Z,100280.97
2022-07-25T16:06:09.203Z,100271.78
2022-07-25T16:08:37.990Z,100287.31
2022-07-25T16:11:06.198Z,100267.78
2022-07-25T16:13:34.037Z,100281.78
2022-07-25T16:16:01.874Z,100270.59
2022-07-25T16:18:31.227Z,100268.84
2022-07-25T16:20:59.071Z,100259.09
2022-07-25T16:23:28.133Z,100264.16
2022-07-25T16:25:55.956Z,100251.09
2022-07-25T16:28:23.780Z,100260.41
2022-07-25T16:30:52.138Z,100249.06
2022-07-25T16:33:19.975Z,100263.97
2022-07-25T16:35:49.457Z,100256.56
2022-07-25T16:38:17.954Z,100274.69
2022-07-25T16:40:45.817Z,100276.78
2022-07-25T16:43:13.625Z,100282.41
2022-07-25T16:45:42.224Z,100262.34
2022-07-25T16:48:10.264Z,100306.53
2022-07-25T16:50:38.057Z,100285.94
2022-07-25T16:53:07.509Z,100286.66
2022-07-25T16:55:35.398Z,100286.88
2022-07-25T16:58:03.609Z,100264.47
2022-07-25T17:00:31.728Z,100271.06
2022-07-25T17:02:59.628Z,100289.44
2022-07-25T17:05:27.463Z,100292.50
2022-07-25T17:07:59.456Z,100287.31
2022-07-25T17:10:29.895Z,100293.66
2022-07-25T17:12:57.736Z,100305.41
2022-07-25T17:15:25.695Z,100307.03
2022-07-25T17:17:53.635Z,100312.81
2022-07-25T17:20:21.590Z,100318.09
2022-07-25T17:22:49.355Z,100309.88
2022-07-25T17:25:20.057Z,100309.50
2022-07-25T17:27:49.297Z,100308.22
2022-07-25T17:30:19.891Z,100309.28
2022-07-25T17:32:47.737Z,100304.94
2022-07-25T17:35:18.112Z,100312.44
2022-07-25T17:37:46.277Z,100312.81
2022-07-25T17:40:14.224Z,100318.22
2022-07-25T17:42:45.248Z,100311.84
2022-07-25T17:45:15.684Z,100307.63
2022-07-25T17:47:44.260Z,100311.03
2022-07-25T17:50:13.134Z,100306.13
2022-07-25T17:52:41.076Z,100315.06
2022-07-25T17:55:09.724Z,100310.09
2022-07-25T17:57:37.639Z,100322.19
2022-07-25T18:00:06.593Z,100320.56
2022-07-25T18:02:41.038Z,100337.84
2022-07-25T18:05:09.579Z,100313.13
2022-07-25T18:07:40.647Z,100325.13
2022-07-25T18:10:09.065Z,100326.06
2022-07-25T18:12:36.879Z,100337.09
2022-07-25T18:15:05.216Z,100324.75
2022-07-25T18:17:33.302Z,100324.97
2022-07-25T18:20:02.556Z,100318.28
2022-07-25T18:22:30.766Z,100316.63
2022-07-25T18:24:58.659Z,100318.94
2022-07-25T18:27:27.006Z,100324.72
2022-07-25T18:29:54.876Z,100320.38
2022-07-25T18:32:22.728Z,100320.81
2022-07-25T18:34:50.551Z,100319.97
2022-07-25T18:37:20.208Z,100327.13
2022-07-25T18:39:48.065Z,100332.88
2022-07-25T18:42:15.948Z,100335.22
2022-07-25T18:44:43.762Z,100344.97
2022-07-25T18:47:11.991Z,100339.53
2022-07-25T18:49:41.930Z,100334.38
2022-07-25T18:52:09.779Z,100341.88
2022-07-25T18:54:38.941Z,100346.94
2022-07-25T18:57:06.805Z,100346.78
2022-07-25T18:59:34.812Z,100343.81
2022-07-25T19:02:03.045Z,100350.47
2022-07-25T19:04:31.004Z,100351.59
2022-07-25T19:06:59.437Z,100361.19
2022-07-25T19:09:27.225Z,100354.53
2022-07-25T19:11:57.051Z,100352.88
2022-07-25T19:14:27.244Z,100361.88
2022-07-25T19:16:57.470Z,100351.53
2022-07-25T19:19:25.693Z,100329.78
2022-07-25T19:21:53.725Z,100361.72
2022-07-25T19:24:22.926Z,100364.25
2022-07-25T19:26:50.997Z,100366.22
2022-07-25T19:29:21.448Z,100373.47
2022-07-25T19:31:49.353Z,100372.88
2022-07-25T19:34:17.152Z,100384.09
2022-07-25T19:36:45.952Z,100379.63
2022-07-25T19:39:14.366Z,100384.19
2022-07-25T19:41:46.613Z,100383.38
2022-07-25T19:46:44.767Z,100386.34
2022-07-25T19:49:13.282Z,100391.34
2022-07-25T19:51:41.512Z,100391.34
2022-07-25T19:54:10.007Z,100398.88
2022-07-25T19:56:38.136Z,100403.66
2022-07-25T19:59:06.067Z,100391.88
2022-07-25T20:01:35.828Z,100393.75
2022-07-25T20:04:08.978Z,100407.22
2022-07-25T20:06:37.549Z,100399.78
2022-07-25T20:09:06.330Z,100413.13
2022-07-25T20:11:34.629Z,100408.56
2022-07-25T20:14:02.462Z,100417.25
2022-07-25T20:16:30.670Z,100404.03
2022-07-25T20:18:58.566Z,100414.38
2022-07-25T20:21:27.979Z,100420.59
2022-07-25T20:23:56.081Z,100410.69
2022-07-25T20:26:23.971Z,100400.19
2022-07-25T20:28:51.815Z,100416.97
2022-07-25T20:31:22.163Z,100417.34
2022-07-25T20:33:50.096Z,100414.06
2022-07-25T20:36:18.364Z,100418.63
2022-07-25T20:38:47.904Z,100417.00
2022-07-25T20:41:16.390Z,100424.88
2022-07-25T20:43:44.567Z,100418.91
2022-07-25T20:46:12.531Z,100424.13
2022-07-25T20:48:40.466Z,100422.91
2022-07-25T20:51:08.516Z,100425.78
2022-07-25T20:53:36.305Z,100431.22
2022-07-25T20:56:06.036Z,100429.56
2022-07-25T20:58:33.840Z,100434.56
2022-07-25T21:01:01.664Z,100435.81
2022-07-25T21:03:29.646Z,100435.00
2022-07-25T21:05:57.492Z,100438.13
2022-07-25T21:08:25.661Z,100441.09
2022-07-25T21:10:53.458Z,100451.25
2022-07-25T21:13:22.613Z,100452.94
2022-07-25T21:15:50.379Z,100453.13
2022-07-25T21:18:20.035Z,100445.88
2022-07-25T21:20:48.117Z,100453.75
2022-07-25T21:23:16.457Z,100455.84
2022-07-25T21:25:44.243Z,100458.75
2022-07-25T21:28:11.980Z,100462.06
2022-07-25T21:30:43.324Z,100468.69
2022-07-25T21:33:14.849Z,100463.31
2022-07-25T21:35:46.760Z,100455.88
2022-07-25T21:38:26.022Z,100468.69
2022-07-25T21:40:55.709Z,100471.22
2022-07-25T21:43:23.599Z,100468.53
2022-07-25T21:45:52.887Z,100482.19
2022-07-25T21:48:40.871Z,100473.47
2022-07-25T21:51:10.155Z,100482.00
2022-07-25T21:53:47.672Z,100487.19
2022-07-25T21:56:15.567Z,100490.72
2022-07-25T21:58:43.348Z,100487.81
2022-07-25T22:01:12.731Z,100494.44
2022-07-25T22:03:41.402Z,100496.03
2022-07-25T22:06:10.162Z,100490.06
2022-07-25T22:08:39.314Z,100503.13
2022-07-25T22:11:15.773Z,100510.19
2022-07-25T22:13:47.401Z,100510.38
2022-07-25T22:16:17.247Z,100503.34
2022-07-25T22:18:45.151Z,100507.50
2022-07-25T22:21:15.750Z,100505.66
2022-07-25T22:23:43.796Z,100502.34
2022-07-25T22:26:11.612Z,100513.94
2022-07-25T22:28:39.412Z,100513.09
2022-07-25T22:31:07.338Z,100516.63
2022-07-25T22:33:38.165Z,100517.66
2022-07-25T22:36:07.168Z,100528.47
2022-07-25T22:38:35.303Z,100528.06
2022-07-25T22:41:03.193Z,100524.69
2022-07-25T22:43:57.224Z,100532.97
2022-07-25T22:46:19.007Z,100545.22
2022-07-25T22:48:48.259Z,100540.84
2022-07-25T22:51:16.796Z,100550.81
2022-07-25T22:53:44.608Z,100552.47
2022-07-25T22:56:12.575Z,100552.88
2022-07-25T22:58:40.371Z,100561.59
2022-07-25T23:01:08.181Z,100562.84
2022-07-25T23:03:37.123Z,100568.66
2022-07-25T23:06:06.553Z,100570.53
2022-07-25T23:08:34.345Z,100554.56
2022-07-25T23:11:03.390Z,100570.53
2022-07-25T23:13:31.262Z,100570.94
2022-07-25T23:15:59.163Z,100570.13
2022-07-25T23:18:26.992Z,100573.03
2022-07-25T23:20:54.923Z,100566.19
2022-07-25T23:23:24.172Z,100564.53
2022-07-25T23:25:52.116Z,100565.16
2022-07-25T23:28:19.988Z,100567.63
2022-07-25T23:30:47.802Z,100569.91
2022-07-25T23:33:15.545Z,100569.09
2022-07-25T23:35:43.743Z,100571.97
2022-07-25T23:38:11.560Z,100571.56
2022-07-25T23:40:40.697Z,100564.53
2022-07-25T23:43:08.486Z,100565.75
2022-07-25T23:45:36.275Z,100576.09
2022-07-25T23:48:04.596Z,100569.50
2022-07-25T23:50:32.447Z,100574.91
2022-07-25T23:53:00.251Z,100569.91
2022-07-25T23:55:28.302Z,100569.50
2022-07-25T23:57:57.468Z,100535.72
